createdAt,value
2023-04-10T00:07:12.980Z,100.00
2023-04-10T00:19:13.909Z,100.00
2023-04-10T00:31:16.147Z,100.00
2023-04-10T00:43:16.103Z,100.00
2023-04-10T00:55:14.795Z,100.00
2023-04-10T01:07:15.270Z,100.00
2023-04-10T01:19:15.721Z,100.00
2023-04-10T01:31:16.151Z,100.00
2023-04-10T01:43:16.602Z,100.00
2023-04-10T01:55:17.049Z,100.00
2023-04-10T02:07:17.534Z,100.00
2023-04-10T02:19:17.966Z,100.00
2023-04-10T02:31:18.546Z,100.00
2023-04-10T02:43:18.862Z,100.00
2023-04-10T03:07:19.778Z,100.00
2023-04-10T03:19:20.200Z,100.00
2023-04-10T03:31:20.778Z,100.00
2023-04-10T03:43:21.221Z,100.00
2023-04-10T03:55:21.527Z,100.00
2023-04-10T04:07:22.066Z,100.00
2023-04-10T04:19:22.468Z,100.00
2023-04-10T04:31:22.927Z,100.00
2023-04-10T04:43:23.404Z,100.00
2023-04-10T04:55:23.870Z,100.00
2023-04-10T05:07:24.342Z,100.00
2023-04-10T05:19:24.761Z,100.00
2023-04-10T05:31:25.208Z,100.00
2023-04-10T05:43:25.624Z,100.00
2023-04-10T05:55:26.257Z,100.00
2023-04-10T06:07:26.547Z,100.00
2023-04-10T06:19:27.002Z,100.00
2023-04-10T06:31:27.528Z,100.00
2023-04-10T06:43:27.896Z,100.00
2023-04-10T06:55:31.071Z,100.00
2023-04-10T07:07:28.810Z,100.00
2023-04-10T07:19:29.469Z,100.00
2023-04-10T07:31:29.743Z,94.69
2023-04-10T07:43:30.139Z,82.33
2023-04-10T07:55:30.597Z,81.61
2023-04-10T08:07:31.071Z,80.85
2023-04-10T08:19:31.520Z,74.32
2023-04-10T08:31:32.080Z,78.20
2023-04-10T08:43:32.400Z,73.19
2023-04-10T08:55:32.840Z,70.03
2023-04-10T09:07:33.315Z,71.61
2023-04-10T09:19:33.803Z,65.86
2023-04-10T09:31:34.273Z,63.14
2023-04-10T09:43:34.660Z,59.70
2023-04-10T09:55:35.068Z,63.32
2023-04-10T10:07:35.769Z,57.01
2023-04-10T10:19:36.031Z,56.24
2023-04-10T10:31:36.493Z,54.00
2023-04-10T10:43:36.927Z,58.56
2023-04-10T10:55:37.413Z,57.29
2023-04-10T11:07:37.887Z,52.03
2023-04-10T11:19:38.299Z,46.57
2023-04-10T11:31:38.789Z,45.62
2023-04-10T11:43:39.254Z,39.43
2023-04-10T11:55:39.652Z,40.02
2023-04-10T12:07:40.102Z,43.94
2023-04-10T12:19:40.603Z,40.88
2023-04-10T12:31:41.102Z,42.53
2023-04-10T12:43:41.474Z,40.65
2023-04-10T12:55:41.918Z,43.59
2023-04-10T13:07:42.413Z,39.28
2023-04-10T13:19:42.859Z,41.97
2023-04-10T13:31:43.346Z,37.34
2023-04-10T13:43:43.755Z,38.84
2023-04-10T13:55:44.206Z,42.67
2023-04-10T14:07:44.719Z,40.28
2023-04-10T14:19:45.132Z,40.52
2023-04-10T14:31:57.257Z,40.45
2023-04-10T14:43:46.030Z,41.65
2023-04-10T14:55:46.542Z,40.75
2023-04-10T15:07:47.000Z,39.25
2023-04-10T15:19:47.451Z,38.55
2023-04-10T15:31:47.869Z,38.86
2023-04-10T15:43:48.340Z,39.72
2023-04-10T15:55:48.768Z,40.88
2023-04-10T16:07:49.230Z,41.68
2023-04-10T16:19:49.705Z,44.32
2023-04-10T16:31:50.202Z,44.91
2023-04-10T16:43:50.632Z,45.43
2023-04-10T16:55:51.057Z,51.09
2023-04-10T17:07:51.512Z,50.04
2023-04-10T17:19:51.957Z,56.01
2023-04-10T17:31:52.496Z,60.61
2023-04-10T17:43:52.847Z,63.41
2023-04-10T17:55:53.322Z,69.51
2023-04-10T18:07:53.794Z,70.62
2023-04-10T18:19:54.223Z,72.91
2023-04-10T18:31:54.681Z,72.50
2023-04-10T18:44:04.820Z,73.96
2023-04-10T18:55:55.610Z,76.88
2023-04-10T19:08:03.495Z,81.48
2023-04-10T19:19:56.480Z,77.82
2023-04-10T19:31:59.773Z,78.92
2023-04-10T19:43:57.649Z,79.31
2023-04-10T19:55:58.016Z,80.70
2023-04-10T20:07:58.298Z,85.48
2023-04-10T20:19:58.771Z,81.27
2023-04-10T20:31:59.264Z,83.96
2023-04-10T20:43:59.666Z,86.13
2023-04-10T20:56:00.117Z,84.74
2023-04-10T21:08:02.330Z,85.66
2023-04-10T21:20:01.087Z,86.72
2023-04-10T21:32:01.532Z,85.46
2023-04-10T21:44:01.899Z,87.67
2023-04-10T21:56:02.391Z,93.12
2023-04-10T22:08:05.144Z,94.07
2023-04-10T22:20:03.287Z,91.59
2023-04-10T22:32:03.721Z,90.48
2023-04-10T22:44:04.205Z,96.12
2023-04-10T22:56:04.644Z,93.68
2023-04-10T23:08:05.086Z,93.24
2023-04-10T23:20:05.560Z,97.14
2023-04-10T23:32:06.011Z,89.88
2023-04-10T23:44:06.472Z,90.19
2023-04-10T23:56:06.933Z,90.36
